Time;durP1;ratioP1;P1;durP2;ratioP2;P2;SDS_P1;SDS_P2;PMS_P1;PMS_P2;Temp;Humidity;BMP_temperature;BMP_pressure;BME280_temperature;BME280_humidity;BME280_pressure;Samples;Min_cycle;Max_cycle;Signal;HPM_P1;HPM_P2
2022/04/04 00:00:21;;;;;;;6.57;3.40;;;2.50;99.90;;;;;;5013858;28;20067;-85
2022/04/04 00:02:49;;;;;;;9.63;3.90;;;2.50;99.90;;;;;;5017761;28;20056;-85
2022/04/04 00:05:44;;;;;;;9.70;4.22;;;2.50;99.90;;;;;;5018641;28;20080;-85
2022/04/04 00:08:12;;;;;;;7.32;3.97;;;2.60;99.90;;;;;;5036772;28;20063;-85
2022/04/04 00:10:43;;;;;;;8.57;4.10;;;2.60;99.90;;;;;;5019143;28;20036;-84
2022/04/04 00:13:11;;;;;;;6.38;3.42;;;2.60;99.90;;;;;;5003295;28;20045;-86
2022/04/04 00:15:42;;;;;;;6.28;4.15;;;2.60;99.90;;;;;;5018190;28;20041;-84
2022/04/04 00:18:11;;;;;;;10.02;4.43;;;2.50;99.90;;;;;;5034869;28;20102;-85
2022/04/04 00:20:42;;;;;;;10.13;4.53;;;2.60;99.90;;;;;;5030014;28;20394;-84
2022/04/04 00:23:15;;;;;;;8.55;4.75;;;2.50;99.90;;;;;;5019300;28;20045;-84
2022/04/04 00:25:46;;;;;;;8.65;4.50;;;2.50;99.90;;;;;;5019988;28;20045;-84
2022/04/04 00:28:13;;;;;;;12.10;4.85;;;2.60;99.90;;;;;;5019104;28;20111;-85
2022/04/04 00:30:42;;;;;;;6.32;4.65;;;2.60;99.90;;;;;;5018734;28;20107;-85
2022/04/04 00:33:13;;;;;;;6.60;4.60;;;2.60;99.90;;;;;;5025712;28;20095;-85
2022/04/04 00:35:41;;;;;;;8.05;4.47;;;2.60;99.90;;;;;;5018827;28;20049;-85
2022/04/04 00:38:22;;;;;;;6.63;3.83;;;2.60;99.90;;;;;;5019241;28;20119;-85
2022/04/04 00:41:01;;;;;;;;;;;;;;;;;;;;;
2022/04/04 00:43:35;;;;;;;9.02;4.90;;;2.60;99.90;;;;;;5036644;28;20252;-86
2022/04/04 00:46:01;;;;;;;9.73;4.68;;;2.60;99.90;;;;;;4989044;28;20553;-88
2022/04/04 00:48:32;;;;;;;6.93;3.85;;;2.70;99.90;;;;;;5035890;28;20123;-85
2022/04/04 00:51:01;;;;;;;9.88;4.50;;;2.70;99.90;;;;;;5015420;28;20516;-86
2022/04/04 00:53:31;;;;;;;13.80;5.38;;;2.80;99.90;;;;;;5016374;28;20055;-86
2022/04/04 00:56:12;;;;;;;8.60;4.40;;;2.80;99.90;;;;;;5013306;28;20500;-84
2022/04/04 00:58:39;;;;;;;6.18;3.42;;;2.80;99.90;;;;;;5018990;28;20045;-85
2022/04/04 01:01:05;;;;;;;8.55;4.57;;;2.80;99.90;;;;;;5031377;28;20053;-88
2022/04/04 01:03:31;;;;;;;10.80;4.38;;;2.90;99.90;;;;;;5030910;28;20129;-85
2022/04/04 01:06:04;;;;;;;10.00;4.60;;;2.90;99.90;;;;;;5031249;28;20053;-85
2022/04/04 01:08:31;;;;;;;9.82;5.22;;;3.00;99.90;;;;;;5011813;28;20038;-84
2022/04/04 01:11:02;;;;;;;7.82;5.15;;;3.00;99.90;;;;;;5029515;28;20046;-84
2022/04/04 01:13:33;;;;;;;11.68;5.85;;;3.10;99.90;;;;;;5020829;28;20049;-85
2022/04/04 01:16:02;;;;;;;12.40;6.20;;;3.10;99.90;;;;;;5026489;28;20061;-85
2022/04/04 01:18:32;;;;;;;14.73;6.60;;;3.10;99.90;;;;;;5030325;28;20049;-85
2022/04/04 01:20:58;;;;;;;9.50;6.07;;;3.20;99.90;;;;;;5014753;28;20049;-84
2022/04/04 01:23:25;;;;;;;11.95;6.22;;;3.20;99.90;;;;;;5014067;28;20049;-84
2022/04/04 01:25:51;;;;;;;9.45;6.57;;;3.20;99.90;;;;;;5000244;28;20046;-85
2022/04/04 01:28:22;;;;;;;14.00;7.40;;;3.30;99.90;;;;;;5012544;28;20379;-85
2022/04/04 01:30:53;;;;;;;12.25;6.68;;;3.30;99.90;;;;;;5014528;28;20049;-86
2022/04/04 01:33:22;;;;;;;11.70;6.82;;;3.40;99.90;;;;;;5012108;28;20041;-84
2022/04/04 01:35:54;;;;;;;11.52;7.25;;;3.40;99.90;;;;;;5030880;28;20059;-85
2022/04/04 01:38:22;;;;;;;10.75;6.88;;;3.50;99.90;;;;;;5010886;28;20045;-84
2022/04/04 01:40:52;;;;;;;10.90;7.13;;;3.50;99.90;;;;;;4995314;28;20061;-84
2022/04/04 01:43:21;;;;;;;15.90;8.32;;;3.60;99.90;;;;;;5028856;28;20045;-84
2022/04/04 01:48:36;;;;;;;14.73;8.68;;;3.70;99.90;;;;;;5028831;28;20049;-85
2022/04/04 01:51:04;;;;;;;13.93;8.20;;;3.60;99.90;;;;;;5011757;28;20517;-84
2022/04/04 01:53:31;;;;;;;15.13;10.55;;;3.70;99.90;;;;;;5029184;28;20084;-85
2022/04/04 01:56:06;;;;;;;15.90;10.93;;;3.70;99.90;;;;;;4997995;28;20122;-84
2022/04/04 01:58:33;;;;;;;18.35;11.15;;;3.70;99.90;;;;;;4992937;28;20037;-85
2022/04/04 02:01:04;;;;;;;15.98;10.73;;;3.70;99.90;;;;;;5013657;28;20065;-84
2022/04/04 02:03:33;;;;;;;15.48;10.57;;;3.80;99.90;;;;;;5012746;28;20049;-87
2022/04/04 02:06:00;;;;;;;16.67;10.88;;;3.80;99.90;;;;;;5013968;28;20144;-84
2022/04/04 02:08:26;;;;;;;17.50;11.25;;;3.80;99.90;;;;;;5010805;28;20041;-83
2022/04/04 02:10:52;;;;;;;21.88;12.10;;;3.90;99.90;;;;;;4997520;28;20049;-84
2022/04/04 02:13:43;;;;;;;15.48;10.40;;;3.90;99.90;;;;;;4985935;28;20552;-84
2022/04/04 02:16:11;;;;;;;16.30;11.27;;;3.80;99.90;;;;;;5013427;28;20053;-84
2022/04/04 02:18:42;;;;;;;16.95;11.07;;;3.90;99.90;;;;;;5029530;28;20473;-84
2022/04/04 02:21:16;;;;;;;16.20;10.77;;;3.90;99.90;;;;;;5009785;28;20093;-84
2022/04/04 02:23:42;;;;;;;19.20;11.77;;;3.90;99.90;;;;;;5018027;28;20076;-85
2022/04/04 02:26:08;;;;;;;18.85;11.38;;;4.00;99.90;;;;;;5011384;28;20525;-85
2022/04/04 02:28:44;;;;;;;19.35;11.60;;;4.00;99.90;;;;;;5029250;28;20513;-83
2022/04/04 02:31:12;;;;;;;17.83;11.18;;;4.00;99.90;;;;;;4980903;28;20049;-88
2022/04/04 02:33:43;;;;;;;17.40;11.10;;;4.00;99.90;;;;;;5029735;28;20049;-83
2022/04/04 02:36:12;;;;;;;17.13;11.75;;;4.10;99.90;;;;;;4996266;28;20049;-85
2022/04/04 02:38:48;;;;;;;;;;;;;;;;;;;;;
2022/04/04 02:41:22;;;;;;;15.73;8.80;;;4.00;99.90;;;;;;5026928;28;20049;-84
2022/04/04 02:43:51;;;;;;;22.00;12.05;;;4.20;99.90;;;;;;5024882;28;20052;-85
2022/04/04 02:46:19;;;;;;;24.05;11.05;;;4.10;99.90;;;;;;4993636;28;20484;-85
2022/04/04 02:48:45;;;;;;;16.63;10.55;;;4.10;99.90;;;;;;4996656;28;20116;-84
2022/04/04 02:51:13;;;;;;;16.05;11.27;;;4.10;99.90;;;;;;5007759;28;20125;-85
2022/04/04 02:53:39;;;;;;;20.42;11.48;;;4.20;99.90;;;;;;5005065;28;20076;-84
2022/04/04 02:58:54;;;;;;;17.40;9.75;;;4.20;99.90;;;;;;5015362;28;20499;-85
2022/04/04 03:01:23;;;;;;;19.90;11.52;;;4.20;99.90;;;;;;5027707;28;20068;-85
2022/04/04 03:03:51;;;;;;;18.23;11.30;;;4.20;99.90;;;;;;5010205;28;20058;-85
2022/04/04 03:06:22;;;;;;;16.17;10.25;;;4.30;99.90;;;;;;5028963;28;20466;-84
2022/04/04 03:08:51;;;;;;;17.27;9.98;;;4.20;99.90;;;;;;4996425;28;20111;-84
2022/04/04 03:11:25;;;;;;;20.48;11.77;;;4.30;99.90;;;;;;5012548;28;20059;-85
2022/04/04 03:13:55;;;;;;;17.02;10.73;;;4.30;99.90;;;;;;4994913;28;20606;-84
2022/04/04 03:16:26;;;;;;;14.80;9.00;;;4.30;99.90;;;;;;5012030;28;20047;-85
2022/04/04 03:18:54;;;;;;;13.60;8.68;;;4.30;99.90;;;;;;4995378;28;20043;-85
2022/04/04 03:21:23;;;;;;;17.10;11.68;;;4.30;99.90;;;;;;5011762;28;20058;-84
2022/04/04 03:23:54;;;;;;;19.23;12.70;;;4.50;99.90;;;;;;5006313;28;20562;-83
2022/04/04 03:26:23;;;;;;;22.15;12.18;;;4.40;99.90;;;;;;5012394;28;20568;-84
2022/04/04 03:28:53;;;;;;;20.13;12.52;;;4.40;99.90;;;;;;5012149;28;20063;-85
2022/04/04 03:31:22;;;;;;;19.85;11.70;;;4.50;99.90;;;;;;4979935;28;20084;-84
2022/04/04 03:33:53;;;;;;;22.77;13.05;;;4.40;99.90;;;;;;5027855;28;20093;-85
2022/04/04 03:36:20;;;;;;;19.20;12.73;;;4.50;99.90;;;;;;5012881;28;20093;-84
2022/04/04 03:38:46;;;;;;;19.90;12.65;;;4.50;99.90;;;;;;5012532;28;20437;-85
2022/04/04 03:41:15;;;;;;;15.77;11.15;;;4.50;99.90;;;;;;5028286;28;20048;-83
2022/04/04 03:43:44;;;;;;;18.02;11.18;;;4.60;99.90;;;;;;5012281;28;20041;-84
2022/04/04 03:46:12;;;;;;;18.13;12.02;;;4.70;99.90;;;;;;5008775;28;20048;-85
2022/04/04 03:48:45;;;;;;;22.35;11.63;;;4.70;99.90;;;;;;5012729;28;20092;-84
2022/04/04 03:51:16;;;;;;;18.58;12.85;;;4.70;99.90;;;;;;5029189;28;20049;-84
2022/04/04 03:53:44;;;;;;;21.13;11.57;;;4.80;99.90;;;;;;5013247;28;20045;-84
2022/04/04 03:56:12;;;;;;;19.48;12.65;;;4.80;99.90;;;;;;5000886;28;20045;-84
2022/04/04 03:58:40;;;;;;;23.88;12.88;;;4.80;99.90;;;;;;4995974;28;20048;-84
2022/04/04 04:01:06;;;;;;;19.80;11.95;;;4.90;99.90;;;;;;5010184;28;20061;-84
2022/04/04 04:03:35;;;;;;;20.00;12.98;;;4.90;99.90;;;;;;5004752;28;20187;-85
2022/04/04 04:06:16;;;;;;;20.90;12.50;;;4.90;99.90;;;;;;5028300;28;20077;-85
2022/04/04 04:08:46;;;;;;;19.55;11.95;;;4.90;99.90;;;;;;5015665;28;20052;-86
2022/04/04 04:11:14;;;;;;;20.38;12.43;;;4.80;99.90;;;;;;5014972;28;20064;-85
2022/04/04 04:13:43;;;;;;;17.63;12.95;;;4.80;99.90;;;;;;5013824;28;20045;-85
2022/04/04 04:16:13;;;;;;;22.17;12.90;;;4.80;99.90;;;;;;5015372;28;20123;-84
2022/04/04 04:18:43;;;;;;;20.13;13.32;;;4.80;99.90;;;;;;5027886;28;20048;-85
2022/04/04 04:21:12;;;;;;;26.02;12.80;;;4.70;99.90;;;;;;5002491;28;20054;-84
2022/04/04 04:23:53;;;;;;;20.33;12.95;;;4.70;99.90;;;;;;4988434;28;20041;-85
2022/04/04 04:26:21;;;;;;;21.45;12.15;;;4.60;99.90;;;;;;5028907;28;20049;-87
2022/04/04 04:28:56;;;;;;;24.10;12.68;;;4.50;99.90;;;;;;5007210;28;20049;-86
2022/04/04 04:31:25;;;;;;;20.77;12.85;;;4.50;99.90;;;;;;5011237;28;20049;-87
2022/04/04 04:34:03;;;;;;;21.45;13.63;;;4.40;99.90;;;;;;4997403;28;20045;-86
2022/04/04 04:36:49;;;;;;;;;;;;;;;;;;;;;
2022/04/04 04:39:22;;;;;;;22.30;12.07;;;4.30;99.90;;;;;;5021792;28;20047;-86
2022/04/04 04:41:56;;;;;;;21.55;13.80;;;4.30;99.90;;;;;;5001504;28;20049;-87
2022/04/04 04:44:22;;;;;;;19.15;12.38;;;4.30;99.90;;;;;;5011698;28;20042;-87
2022/04/04 04:46:53;;;;;;;30.38;14.85;;;4.30;99.90;;;;;;4995566;28;20057;-85
2022/04/04 04:49:26;;;;;;;23.95;12.07;;;4.40;99.90;;;;;;5029939;28;20120;-86
2022/04/04 04:51:55;;;;;;;20.10;13.38;;;4.40;99.90;;;;;;5011377;28;20052;-86
2022/04/04 04:54:23;;;;;;;19.45;13.90;;;4.40;99.90;;;;;;5009390;28;20438;-90
2022/04/04 04:56:52;;;;;;;19.83;11.80;;;4.40;99.90;;;;;;5014281;28;20053;-86
2022/04/04 04:59:26;;;;;;;21.13;11.38;;;4.30;99.90;;;;;;5009367;28;20053;-87
2022/04/04 05:02:06;;;;;;;23.08;11.88;;;4.30;99.90;;;;;;5014180;28;20057;-87
2022/04/04 05:05:18;;;;;;;20.42;12.27;;;4.30;99.90;;;;;;4981575;28;20407;-87
2022/04/04 05:07:46;;;;;;;24.00;13.57;;;4.30;99.90;;;;;;5025172;28;20049;-87
2022/04/04 05:10:14;;;;;;;25.20;14.90;;;4.20;99.90;;;;;;4999281;28;20053;-87
2022/04/04 05:12:43;;;;;;;15.27;8.80;;;4.30;99.90;;;;;;5010703;28;20050;-87
2022/04/04 05:15:12;;;;;;;22.73;12.10;;;4.30;99.90;;;;;;5015171;28;20132;-87
2022/04/04 05:17:44;;;;;;;17.63;12.02;;;4.20;99.90;;;;;;5030598;28;20049;-84
2022/04/04 05:20:13;;;;;;;23.08;15.35;;;4.20;99.90;;;;;;5005490;28;20049;-85
2022/04/04 05:22:59;;;;;;;;;;;;;;;;;;;;;
2022/04/04 05:25:25;;;;;;;27.88;16.10;;;4.20;99.90;;;;;;5026021;28;20048;-84
2022/04/04 05:27:52;;;;;;;25.45;16.98;;;4.10;99.90;;;;;;5013616;28;20511;-87
2022/04/04 05:30:18;;;;;;;24.02;17.15;;;4.10;99.90;;;;;;5026111;28;20053;-87
2022/04/04 05:32:46;;;;;;;25.65;13.95;;;4.10;99.90;;;;;;5009882;28;20052;-88
2022/04/04 05:35:15;;;;;;;27.85;15.35;;;4.20;99.90;;;;;;4999706;28;20049;-84
2022/04/04 05:37:41;;;;;;;29.33;17.27;;;4.10;99.90;;;;;;5021598;28;20049;-88
2022/04/04 05:40:10;;;;;;;27.63;18.58;;;4.10;99.90;;;;;;5012725;28;20060;-86
2022/04/04 05:42:36;;;;;;;21.00;12.73;;;4.10;99.90;;;;;;5030055;28;20128;-88
2022/04/04 05:45:02;;;;;;;25.52;15.45;;;4.00;99.90;;;;;;5024822;28;20133;-86
2022/04/04 05:47:33;;;;;;;29.73;17.63;;;4.00;99.90;;;;;;5025061;28;20081;-89
2022/04/04 05:50:02;;;;;;;26.30;16.38;;;4.00;99.90;;;;;;5002740;28;20045;-91
2022/04/04 05:52:28;;;;;;;27.67;15.80;;;4.00;99.90;;;;;;5006116;28;20046;-88
2022/04/04 05:54:56;;;;;;;22.80;13.43;;;3.90;99.90;;;;;;5007398;28;20096;-87
2022/04/04 05:57:39;;;;;;;22.55;13.35;;;4.10;99.90;;;;;;5026942;28;20034;-91
2022/04/04 06:03:09;;;;;;;28.33;17.50;;;4.00;99.90;;;;;;5021795;28;20057;-91
2022/04/04 06:05:38;;;;;;;27.17;17.92;;;4.00;99.90;;;;;;5032261;28;20076;-90
2022/04/04 06:08:27;;;;;;;18.20;11.07;;;3.90;99.90;;;;;;5016372;28;20060;-92
2022/04/04 06:11:00;;;;;;;25.02;15.30;;;4.00;99.90;;;;;;5004068;28;20057;-93
2022/04/04 06:13:28;;;;;;;27.48;16.75;;;4.00;99.90;;;;;;5000179;28;20052;-91
2022/04/04 06:15:59;;;;;;;33.45;18.73;;;3.90;99.90;;;;;;5032643;28;20108;-91
2022/04/04 06:18:38;;;;;;;32.70;18.50;;;4.00;99.90;;;;;;5032150;28;20413;-89
2022/04/04 06:21:08;;;;;;;26.25;15.95;;;4.00;99.90;;;;;;5000803;28;20091;-89
2022/04/04 06:23:41;;;;;;;28.35;16.95;;;4.10;99.90;;;;;;5032126;28;20049;-90
2022/04/04 06:26:38;;;;;;;;;;;;;;;;;;;;;
2022/04/04 06:29:09;;;;;;;29.33;16.70;;;4.00;99.90;;;;;;5028671;28;20053;-92
2022/04/04 06:31:52;;;;;;;31.73;16.40;;;4.00;99.90;;;;;;4989788;28;20344;-90
2022/04/04 06:34:19;;;;;;;27.30;15.63;;;4.10;99.90;;;;;;5009613;28;20075;-91
2022/04/04 06:37:01;;;;;;;;;;;;;;;;;;;;;
2022/04/04 06:39:30;;;;;;;27.10;15.57;;;4.20;99.90;;;;;;5028792;28;20041;-86
2022/04/04 06:41:59;;;;;;;36.47;21.23;;;4.10;99.90;;;;;;5020829;28;20073;-88
2022/04/04 06:44:27;;;;;;;25.25;15.20;;;4.10;99.90;;;;;;5013772;28;20056;-91
2022/04/04 06:47:04;;;;;;;30.67;18.02;;;4.10;99.90;;;;;;4994645;28;20050;-87
2022/04/04 06:49:30;;;;;;;30.52;17.55;;;4.10;99.90;;;;;;5015543;28;20037;-89
2022/04/04 06:52:03;;;;;;;22.58;14.27;;;4.10;99.90;;;;;;5023734;28;20095;-89
2022/04/04 06:54:39;;;;;;;29.95;18.38;;;4.10;99.90;;;;;;5029922;28;20157;-89
2022/04/04 06:57:08;;;;;;;20.48;13.48;;;4.10;99.90;;;;;;5014996;28;20056;-88
2022/04/04 06:59:39;;;;;;;26.20;14.48;;;4.10;99.90;;;;;;5001734;28;20080;-89
2022/04/04 07:02:10;;;;;;;21.70;13.63;;;4.10;99.90;;;;;;5028152;28;20045;-88
2022/04/04 07:04:41;;;;;;;28.98;20.02;;;4.10;99.90;;;;;;4996579;28;20513;-87
2022/04/04 07:07:17;;;;;;;27.65;17.42;;;4.10;99.90;;;;;;5001551;28;20046;-87
2022/04/04 07:09:50;;;;;;;21.73;13.10;;;4.10;99.90;;;;;;4997322;28;20721;-87
2022/04/04 07:12:19;;;;;;;31.08;20.90;;;4.20;99.90;;;;;;5012591;28;20049;-87
2022/04/04 07:14:49;;;;;;;23.60;15.15;;;4.20;99.90;;;;;;5028866;28;20048;-87
2022/04/04 07:17:18;;;;;;;24.95;13.10;;;4.20;99.90;;;;;;5018150;28;20057;-86
2022/04/04 07:19:52;;;;;;;16.13;12.07;;;4.20;99.90;;;;;;5011238;28;20058;-88
2022/04/04 07:22:17;;;;;;;35.92;21.08;;;4.20;99.90;;;;;;5012450;28;20083;-87
2022/04/04 07:24:48;;;;;;;24.55;14.65;;;4.20;99.90;;;;;;5004260;28;20046;-86
2022/04/04 07:27:19;;;;;;;30.88;19.52;;;4.20;99.90;;;;;;4997974;28;20046;-87
2022/04/04 07:29:52;;;;;;;38.35;20.55;;;4.20;99.90;;;;;;5010901;28;20049;-87
2022/04/04 07:32:20;;;;;;;28.95;16.63;;;4.20;99.90;;;;;;5011024;28;20037;-87
2022/04/04 07:34:48;;;;;;;37.60;22.63;;;4.30;99.90;;;;;;5000286;28;20068;-87
2022/04/04 07:37:17;;;;;;;25.27;13.95;;;4.30;99.90;;;;;;5027089;28;20475;-86
2022/04/04 07:39:48;;;;;;;33.55;20.02;;;4.30;99.90;;;;;;5026186;28;20054;-86
2022/04/04 07:42:17;;;;;;;32.80;20.63;;;4.30;99.90;;;;;;4995484;28;20061;-87
2022/04/04 07:44:48;;;;;;;38.80;21.48;;;4.30;99.90;;;;;;5027406;28;20088;-86
2022/04/04 07:47:17;;;;;;;37.28;20.15;;;4.20;99.90;;;;;;5012323;28;20059;-87
2022/04/04 07:49:50;;;;;;;31.50;16.92;;;4.30;99.90;;;;;;5008245;28;20575;-87
2022/04/04 07:52:19;;;;;;;31.08;17.52;;;4.30;99.90;;;;;;5023109;28;20099;-86
2022/04/04 07:54:57;;;;;;;27.63;15.63;;;4.40;99.90;;;;;;5013625;28;20088;-87
2022/04/04 07:57:25;;;;;;;29.85;20.50;;;4.40;99.90;;;;;;5014287;28;20083;-86
2022/04/04 07:59:51;;;;;;;32.08;18.60;;;4.50;99.90;;;;;;5013668;28;20609;-87
2022/04/04 08:02:20;;;;;;;35.17;22.83;;;4.50;99.90;;;;;;5004729;28;20061;-86
2022/04/04 08:04:48;;;;;;;20.17;12.82;;;4.50;99.90;;;;;;4995259;28;20058;-86
2022/04/04 08:07:15;;;;;;;32.95;20.23;;;4.50;99.90;;;;;;5037207;28;20212;-86
2022/04/04 08:09:49;;;;;;;31.98;19.48;;;4.50;99.90;;;;;;5022689;28;20080;-86
2022/04/04 08:12:17;;;;;;;25.73;15.32;;;4.60;99.90;;;;;;5013117;28;20056;-86
2022/04/04 08:14:54;;;;;;;;;;;;;;;;;;;;;
2022/04/04 08:17:21;;;;;;;28.80;17.70;;;4.60;99.90;;;;;;5031985;28;20050;-87
2022/04/04 08:19:50;;;;;;;29.42;19.45;;;4.70;99.90;;;;;;5030666;28;20052;-87
2022/04/04 08:22:18;;;;;;;18.58;11.07;;;4.70;99.90;;;;;;4998562;28;20068;-88
2022/04/04 08:24:57;;;;;;;32.20;18.63;;;4.80;99.90;;;;;;5029889;28;20050;-87
2022/04/04 08:27:25;;;;;;;27.80;17.30;;;4.80;99.90;;;;;;4988355;28;20081;-86
2022/04/04 08:29:52;;;;;;;38.45;21.65;;;4.80;99.90;;;;;;5003465;28;20388;-86
2022/04/04 08:32:17;;;;;;;23.92;15.27;;;4.90;99.90;;;;;;4982487;28;20057;-85
2022/04/04 08:34:43;;;;;;;21.23;12.88;;;4.90;99.90;;;;;;5023421;28;20049;-88
2022/04/04 08:37:09;;;;;;;28.05;17.88;;;4.90;99.90;;;;;;4992625;28;20714;-88
2022/04/04 08:39:37;;;;;;;27.58;15.95;;;4.90;99.90;;;;;;5012521;28;20045;-86
2022/04/04 08:42:03;;;;;;;14.30;10.05;;;4.90;99.90;;;;;;4996848;28;20081;-88
2022/04/04 08:44:29;;;;;;;20.85;11.60;;;4.90;99.90;;;;;;5012681;28;20093;-88
2022/04/04 08:46:58;;;;;;;11.80;7.75;;;5.00;99.90;;;;;;5018262;28;20038;-88
2022/04/04 08:49:29;;;;;;;22.80;14.27;;;5.00;99.90;;;;;;5023009;28;20042;-87
2022/04/04 08:51:57;;;;;;;24.77;13.98;;;5.00;99.90;;;;;;4995889;28;20189;-89
2022/04/04 08:54:26;;;;;;;16.42;11.10;;;5.00;99.90;;;;;;4998106;28;20127;-89
2022/04/04 08:56:52;;;;;;;20.33;12.77;;;5.10;99.90;;;;;;5013409;28;20049;-85
2022/04/04 08:59:18;;;;;;;17.48;10.07;;;5.10;99.90;;;;;;5010422;28;20079;-86
2022/04/04 09:01:49;;;;;;;19.50;9.77;;;5.20;99.90;;;;;;4991466;28;20054;-87
2022/04/04 09:04:16;;;;;;;11.48;7.10;;;5.10;99.90;;;;;;5012052;28;20064;-87
2022/04/04 09:07:07;;;;;;;8.02;4.80;;;5.10;99.90;;;;;;5021330;28;20037;-86
2022/04/04 09:09:46;;;;;;;8.55;4.47;;;5.10;99.90;;;;;;4995897;28;20078;-85
2022/04/04 09:12:19;;;;;;;8.05;5.30;;;5.20;99.90;;;;;;4993685;28;20052;-86
2022/04/04 09:14:49;;;;;;;6.43;3.35;;;5.20;99.90;;;;;;5014662;28;20045;-86
2022/04/04 09:17:16;;;;;;;6.75;3.97;;;5.20;99.90;;;;;;5009579;28;20160;-84
2022/04/04 09:19:50;;;;;;;11.70;5.53;;;5.20;99.90;;;;;;5023477;28;20125;-86
2022/04/04 09:22:20;;;;;;;9.68;4.65;;;5.20;99.90;;;;;;5010086;28;20046;-86
2022/04/04 09:24:47;;;;;;;4.43;3.22;;;5.30;99.90;;;;;;5027591;28;20061;-85
2022/04/04 09:27:26;;;;;;;10.27;6.70;;;5.20;99.90;;;;;;5017293;28;20037;-85
2022/04/04 09:30:01;;;;;;;5.70;3.60;;;5.20;99.90;;;;;;4994619;28;20049;-85
2022/04/04 09:32:38;;;;;;;8.23;4.60;;;5.20;99.90;;;;;;5018882;28;20051;-85
2022/04/04 09:35:14;;;;;;;13.95;5.22;;;5.20;99.90;;;;;;5027926;28;20069;-84
2022/04/04 09:37:41;;;;;;;;;;;5.30;99.90;;;;;;5012930;28;20128;-86
2022/04/04 09:40:09;;;;;;;;;;;5.30;99.90;;;;;;5030550;28;19925;-86
2022/04/04 09:42:36;;;;;;;9.07;4.60;;;5.30;99.90;;;;;;5012567;28;20034;-85
2022/04/04 09:45:12;;;;;;;7.10;3.60;;;5.30;99.90;;;;;;5003136;28;20046;-85
2022/04/04 09:47:54;;;;;;;;;;;5.40;99.90;;;;;;5026328;28;20131;-86
2022/04/04 09:50:44;;;;;;;10.18;3.90;;;5.30;99.90;;;;;;5011187;28;19925;-85
2022/04/04 09:53:13;;;;;;;5.70;2.92;;;5.30;99.90;;;;;;5003007;28;20565;-84
2022/04/04 09:55:43;;;;;;;9.43;4.10;;;5.30;99.90;;;;;;5026796;28;20525;-85
2022/04/04 09:58:12;;;;;;;7.05;3.90;;;5.40;99.90;;;;;;5013259;28;20056;-84
2022/04/04 10:00:39;;;;;;;5.55;3.42;;;5.40;99.90;;;;;;5013049;28;20140;-84
2022/04/04 10:03:07;;;;;;;12.02;5.13;;;5.40;99.90;;;;;;4994747;28;20116;-84
2022/04/04 10:05:35;;;;;;;7.72;4.97;;;5.60;99.90;;;;;;5028767;28;20564;-84
2022/04/04 10:08:01;;;;;;;6.18;3.50;;;5.40;99.90;;;;;;5044151;28;20612;-85
2022/04/04 10:10:31;;;;;;;6.90;4.03;;;5.50;99.90;;;;;;5003767;28;20140;-84
2022/04/04 10:12:58;;;;;;;8.70;4.60;;;5.60;99.90;;;;;;4976619;28;20069;-84
2022/04/04 10:15:27;;;;;;;9.35;4.35;;;5.60;99.90;;;;;;4978520;28;20756;-86
2022/04/04 10:17:54;;;;;;;6.55;4.03;;;5.50;99.90;;;;;;5024652;28;20042;-85
2022/04/04 10:20:21;;;;;;;7.75;4.15;;;5.50;99.90;;;;;;5011758;28;20053;-84
2022/04/04 10:22:53;;;;;;;9.52;5.25;;;5.60;99.90;;;;;;4995911;28;20053;-84
2022/04/04 10:25:23;;;;;;;5.22;2.63;;;5.50;99.90;;;;;;5027274;28;20064;-86
2022/04/04 10:27:49;;;;;;;11.60;6.00;;;5.60;99.90;;;;;;5008773;28;20075;-84
2022/04/04 10:30:18;;;;;;;8.82;4.47;;;5.70;99.90;;;;;;5018406;28;20041;-84
2022/04/04 10:32:53;;;;;;;12.85;6.85;;;5.70;99.90;;;;;;5026172;28;20115;-87
2022/04/04 10:35:28;;;;;;;7.47;4.75;;;5.70;99.90;;;;;;5013823;28;20495;-86
2022/04/04 10:38:03;;;;;;;8.30;4.35;;;5.80;99.90;;;;;;5010894;28;20534;-87
2022/04/04 10:40:33;;;;;;;14.00;5.03;;;5.80;99.90;;;;;;5013703;28;20045;-86
2022/04/04 10:43:13;;;;;;;11.25;5.50;;;5.80;99.90;;;;;;5026603;28;20056;-86
2022/04/04 10:46:00;;;;;;;6.45;3.85;;;5.90;99.90;;;;;;5012177;28;20128;-85
2022/04/04 10:48:37;;;;;;;4.57;3.72;;;5.90;99.90;;;;;;5009649;28;20387;-85
2022/04/04 10:51:17;;;;;;;5.80;4.28;;;5.90;99.90;;;;;;5027107;28;20135;-86
2022/04/04 10:53:44;;;;;;;5.78;3.35;;;5.90;99.90;;;;;;5012501;28;20123;-86
2022/04/04 10:56:19;;;;;;;10.43;5.75;;;5.90;99.90;;;;;;5030645;28;20103;-85
2022/04/04 10:58:46;;;;;;;8.43;5.50;;;6.00;99.90;;;;;;5027158;28;20468;-86
2022/04/04 11:01:21;;;;;;;7.30;4.40;;;6.10;99.90;;;;;;5013691;28;20168;-86
2022/04/04 11:03:58;;;;;;;6.80;4.20;;;6.10;99.90;;;;;;5006973;28;20123;-86
2022/04/04 11:09:32;;;;;;;6.22;3.47;;;6.10;99.90;;;;;;4993065;28;20057;-85
2022/04/04 11:12:08;;;;;;;3.63;2.75;;;6.20;99.90;;;;;;5003189;28;20046;-85
2022/04/04 11:14:39;;;;;;;6.85;4.10;;;6.30;99.90;;;;;;5024642;28;20533;-86
2022/04/04 11:20:21;;;;;;;7.05;3.88;;;6.30;99.90;;;;;;5031655;28;20053;-87
2022/04/04 11:22:55;;;;;;;4.38;2.78;;;6.40;99.90;;;;;;5008528;28;20048;-88
2022/04/04 11:25:27;;;;;;;6.50;4.03;;;6.40;99.90;;;;;;5018542;28;20045;-86
2022/04/04 11:27:56;;;;;;;7.90;4.18;;;6.30;99.90;;;;;;5004011;28;20040;-87
2022/04/04 11:30:24;;;;;;;2.63;1.83;;;6.50;99.90;;;;;;5004247;28;20045;-87
2022/04/04 11:32:53;;;;;;;7.18;3.80;;;6.60;99.90;;;;;;5015020;28;20049;-86
2022/04/04 11:35:30;;;;;;;3.50;3.10;;;6.60;99.90;;;;;;5019488;28;20044;-87
2022/04/04 11:38:02;;;;;;;7.35;3.40;;;6.60;99.90;;;;;;5034731;28;20041;-85
2022/04/04 11:40:42;;;;;;;8.80;3.03;;;6.60;99.90;;;;;;5036028;28;20051;-86
2022/04/04 11:43:11;;;;;;;3.78;2.53;;;6.60;99.90;;;;;;5016049;28;20045;-85
2022/04/04 11:45:39;;;;;;;3.85;1.88;;;6.70;99.90;;;;;;5039135;28;20036;-85
2022/04/04 11:48:19;;;;;;;4.07;2.50;;;6.80;99.90;;;;;;5054318;28;20063;-86
2022/04/04 11:50:45;;;;;;;5.25;2.25;;;6.80;99.90;;;;;;5015393;28;20049;-86
2022/04/04 11:53:17;;;;;;;3.42;2.00;;;6.80;99.90;;;;;;5030633;28;20052;-85
2022/04/04 11:55:46;;;;;;;3.13;2.38;;;6.70;99.90;;;;;;5034164;28;20041;-85
2022/04/04 11:58:20;;;;;;;10.43;3.25;;;6.90;99.90;;;;;;5034508;28;20049;-85
2022/04/04 12:00:54;;;;;;;5.93;3.08;;;6.90;99.90;;;;;;4998833;28;20041;-85
2022/04/04 12:03:21;;;;;;;3.67;2.50;;;7.00;99.90;;;;;;4997608;28;20485;-88
2022/04/04 12:05:49;;;;;;;2.55;2.35;;;6.90;99.90;;;;;;5029955;28;20124;-86
2022/04/04 12:08:16;;;;;;;3.50;2.17;;;6.90;99.90;;;;;;5023731;28;20056;-86
2022/04/04 12:10:45;;;;;;;5.50;3.28;;;6.90;99.90;;;;;;5018467;28;20049;-85
2022/04/04 12:13:21;;;;;;;2.88;2.13;;;6.90;99.90;;;;;;5015435;28;20044;-86
2022/04/04 12:15:48;;;;;;;;;;;6.90;99.90;;;;;;5014956;28;20128;-86
2022/04/04 12:18:21;;;;;;;;;;;6.90;99.90;;;;;;5017459;28;19925;-87
2022/04/04 12:20:48;;;;;;;2.30;1.35;;;7.00;99.90;;;;;;5013226;28;19921;-86
2022/04/04 12:26:08;;;;;;;2.42;2.08;;;7.00;99.90;;;;;;5031492;28;20061;-87
2022/04/04 12:28:51;;;;;;;2.45;1.77;;;7.00;99.90;;;;;;5018476;28;20040;-86
2022/04/04 12:31:18;;;;;;;4.82;2.20;;;7.00;99.90;;;;;;5015910;28;20045;-86
2022/04/04 12:33:45;;;;;;;3.13;2.30;;;7.20;99.90;;;;;;5014758;28;20056;-87
2022/04/04 12:36:12;;;;;;;2.13;1.55;;;7.20;99.90;;;;;;5020418;28;20048;-87
2022/04/04 12:38:41;;;;;;;2.65;1.65;;;7.20;99.90;;;;;;5035551;28;20128;-84
2022/04/04 12:41:14;;;;;;;3.20;2.05;;;7.20;99.90;;;;;;5024784;28;20041;-86
2022/04/04 12:43:43;;;;;;;4.13;2.38;;;7.20;99.90;;;;;;5023299;28;20052;-85
2022/04/04 12:46:27;;;;;;;1.95;1.52;;;7.30;99.90;;;;;;5019090;28;20055;-85
2022/04/04 12:48:57;;;;;;;0.90;0.80;;;7.30;99.90;;;;;;5039718;28;20047;-88
2022/04/04 12:51:30;;;;;;;1.98;1.75;;;7.40;99.90;;;;;;5018275;28;20147;-85
2022/04/04 12:54:00;;;;;;;3.95;1.67;;;7.40;99.90;;;;;;5016131;28;20048;-85
2022/04/04 12:56:32;;;;;;;3.58;1.63;;;7.40;99.90;;;;;;5032124;28;20111;-84
2022/04/04 12:59:10;;;;;;;2.15;1.90;;;7.40;99.90;;;;;;5037811;28;20045;-86
2022/04/04 13:01:37;;;;;;;2.78;2.22;;;7.50;99.90;;;;;;5014694;28;20104;-85
2022/04/04 13:04:21;;;;;;;3.78;2.55;;;7.40;99.90;;;;;;5011778;28;20067;-86
2022/04/04 13:06:50;;;;;;;1.92;1.42;;;7.50;99.90;;;;;;4999877;28;20106;-86
2022/04/04 13:09:24;;;;;;;4.18;1.55;;;7.50;99.90;;;;;;5003334;28;20513;-84
2022/04/04 13:11:51;;;;;;;2.35;1.58;;;7.60;99.90;;;;;;5002471;28;20049;-83
2022/04/04 13:14:21;;;;;;;1.40;1.30;;;7.60;99.90;;;;;;5039817;28;20068;-84
2022/04/04 13:17:05;;;;;;;1.98;1.40;;;7.60;99.90;;;;;;5008268;28;20080;-85
2022/04/04 13:19:30;;;;;;;3.63;1.98;;;7.70;99.90;;;;;;5016255;28;20045;-82
2022/04/04 13:21:56;;;;;;;5.22;3.92;;;7.70;99.90;;;;;;5016430;28;20118;-82
2022/04/04 13:24:23;;;;;;;3.40;2.05;;;7.70;99.90;;;;;;5015641;28;20490;-84
2022/04/04 13:26:50;;;;;;;5.97;3.55;;;7.80;99.90;;;;;;4996802;28;20187;-84
2022/04/04 13:29:17;;;;;;;2.38;1.60;;;7.90;99.90;;;;;;4996683;28;21237;-84
2022/04/04 13:31:44;;;;;;;15.70;7.35;;;7.90;99.90;;;;;;5018338;28;20402;-84